createdAt,value
2022-10-28T00:03:41.429Z,15.16
2022-10-28T00:07:41.355Z,14.53
2022-10-28T00:11:43.993Z,13.94
2022-10-28T00:15:43.963Z,13.78
2022-10-28T00:19:43.862Z,13.78
2022-10-28T00:23:43.689Z,14.00
2022-10-28T00:27:46.122Z,14.10
2022-10-28T00:31:46.886Z,13.92
2022-10-28T00:35:46.707Z,13.50
2022-10-28T00:39:46.719Z,13.21
2022-10-28T00:43:50.866Z,13.04
2022-10-28T00:47:57.041Z,12.75
2022-10-28T00:52:02.301Z,12.90
2022-10-28T00:56:04.425Z,13.25
2022-10-28T01:00:09.117Z,13.26
2022-10-28T01:04:10.365Z,13.55
2022-10-28T01:08:10.073Z,13.24
2022-10-28T01:12:19.792Z,13.13
2022-10-28T01:16:31.929Z,13.25
2022-10-28T01:20:57.148Z,13.40
2022-10-28T01:25:29.361Z,13.34
2022-10-28T01:29:46.535Z,13.14
2022-10-28T01:33:54.576Z,13.17
2022-10-28T01:38:08.329Z,13.32
2022-10-28T01:42:22.541Z,13.48
2022-10-28T01:46:27.029Z,13.40
2022-10-28T01:50:33.640Z,13.58
2022-10-28T01:54:36.286Z,13.62
2022-10-28T01:58:39.000Z,13.67
2022-10-28T02:02:40.113Z,13.76
2022-10-28T02:06:44.775Z,13.85
2022-10-28T02:10:52.150Z,13.71
2022-10-28T02:15:09.512Z,13.40
2022-10-28T02:19:17.856Z,13.17
2022-10-28T02:23:28.094Z,12.96
2022-10-28T02:27:41.583Z,12.96
2022-10-28T02:31:48.216Z,12.85
2022-10-28T02:35:54.696Z,12.64
2022-10-28T02:39:59.959Z,12.24
2022-10-28T02:44:04.888Z,12.11
2022-10-28T02:48:13.197Z,12.04
2022-10-28T02:52:13.569Z,11.72
2022-10-28T02:56:17.819Z,11.62
2022-10-28T03:00:24.393Z,11.53
2022-10-28T03:04:24.635Z,10.97
2022-10-28T03:08:25.218Z,10.98
2022-10-28T03:12:27.648Z,10.91
2022-10-28T03:16:28.409Z,10.44
2022-10-28T03:20:28.681Z,10.09
2022-10-28T03:24:28.485Z,10.00
2022-10-28T03:28:30.405Z,10.21
2022-10-28T03:32:30.316Z,10.54
2022-10-28T03:36:30.228Z,10.35
2022-10-28T03:40:30.470Z,10.09
2022-10-28T03:44:32.362Z,10.05
2022-10-28T03:48:32.290Z,10.04
2022-10-28T03:52:32.216Z,10.14
2022-10-28T03:56:32.298Z,10.20
2022-10-28T04:00:34.339Z,10.34
2022-10-28T04:04:34.220Z,10.53
2022-10-28T04:08:36.011Z,10.50
2022-10-28T04:12:39.416Z,10.64
2022-10-28T04:16:41.461Z,10.96
2022-10-28T04:20:47.690Z,11.16
2022-10-28T04:24:47.864Z,11.11
2022-10-28T04:28:50.397Z,11.67
2022-10-28T04:32:51.950Z,11.93
2022-10-28T04:36:52.181Z,11.86
2022-10-28T04:40:52.717Z,11.80
2022-10-28T04:44:53.505Z,12.09
2022-10-28T04:48:55.571Z,12.24
2022-10-28T04:52:55.580Z,11.87
2022-10-28T04:56:56.938Z,12.05
2022-10-28T05:00:59.430Z,12.16
2022-10-28T05:05:03.313Z,12.25
2022-10-28T05:09:03.232Z,12.51
2022-10-28T05:13:03.077Z,13.06
2022-10-28T05:17:02.656Z,13.01
2022-10-28T05:21:04.057Z,13.35
2022-10-28T05:25:04.042Z,13.39
2022-10-28T05:29:03.869Z,13.50
2022-10-28T05:33:04.314Z,13.78
2022-10-28T05:37:06.480Z,13.78
2022-10-28T05:41:05.909Z,13.27
2022-10-28T05:45:06.173Z,13.22
2022-10-28T05:49:05.609Z,13.55
2022-10-28T05:53:07.634Z,13.60
2022-10-28T05:57:07.555Z,13.45
2022-10-28T06:01:11.341Z,13.30
2022-10-28T06:05:24.742Z,13.38
2022-10-28T06:09:30.052Z,13.20
2022-10-28T06:13:28.290Z,13.61
2022-10-28T06:17:28.177Z,13.81
2022-10-28T06:21:27.929Z,14.04
2022-10-28T06:25:29.960Z,14.71
2022-10-28T06:29:30.350Z,15.77
2022-10-28T06:33:31.266Z,16.61
2022-10-28T06:37:31.348Z,16.33
2022-10-28T06:41:33.553Z,16.16
2022-10-28T06:45:35.249Z,15.85
2022-10-28T06:49:36.830Z,16.30
2022-10-28T06:53:36.723Z,16.67
2022-10-28T06:57:38.629Z,17.68
2022-10-28T07:01:38.088Z,18.23
2022-10-28T07:05:38.596Z,19.07
2022-10-28T07:09:39.443Z,19.71
2022-10-28T07:13:42.545Z,19.35
2022-10-28T07:17:44.163Z,18.90
2022-10-28T07:21:43.897Z,18.46
2022-10-28T07:25:44.129Z,18.22
2022-10-28T07:29:46.373Z,18.22
2022-10-28T07:33:46.533Z,18.36
2022-10-28T07:37:45.748Z,18.58
2022-10-28T07:41:45.627Z,18.70
2022-10-28T07:45:47.647Z,18.48
2022-10-28T07:49:47.362Z,18.23
2022-10-28T07:53:46.989Z,18.44
2022-10-28T07:58:30.324Z,18.77
2022-10-28T08:02:30.382Z,18.66
2022-10-28T08:06:32.717Z,18.16
2022-10-28T08:10:32.277Z,18.31
2022-10-28T08:14:32.199Z,18.10
2022-10-28T08:18:36.193Z,18.04
2022-10-28T08:22:36.255Z,17.96
2022-10-28T08:26:36.113Z,17.82
2022-10-28T08:30:50.327Z,17.95
2022-10-28T08:34:58.581Z,18.24
2022-10-28T08:38:59.068Z,18.46
2022-10-28T08:43:07.822Z,18.66
2022-10-28T08:47:25.504Z,18.93
2022-10-28T08:51:35.981Z,19.11
2022-10-28T08:55:38.052Z,19.32
2022-10-28T08:59:41.036Z,19.69
2022-10-28T09:03:46.080Z,19.89
2022-10-28T09:07:48.337Z,20.11
2022-10-28T09:12:17.856Z,20.25
2022-10-28T09:16:27.561Z,20.76
2022-10-28T09:20:34.227Z,20.78
2022-10-28T09:24:45.982Z,21.21
2022-10-28T09:28:57.884Z,21.49
2022-10-28T09:33:09.806Z,21.86
2022-10-28T09:37:17.720Z,21.60
2022-10-28T09:41:23.750Z,21.52
2022-10-28T09:45:27.808Z,21.66
2022-10-28T09:49:31.897Z,21.69
2022-10-28T09:53:41.384Z,21.70
2022-10-28T09:57:43.984Z,21.70
2022-10-28T10:01:47.520Z,21.77
2022-10-28T10:05:52.356Z,22.19
2022-10-28T10:09:52.391Z,22.28
2022-10-28T10:13:56.229Z,22.50
2022-10-28T10:18:04.575Z,22.56
2022-10-28T10:22:04.523Z,22.51
2022-10-28T10:26:09.573Z,22.63
2022-10-28T10:30:24.179Z,22.96
2022-10-28T10:34:30.130Z,23.09
2022-10-28T10:38:32.049Z,23.15
2022-10-28T10:42:32.016Z,23.08
2022-10-28T10:46:34.587Z,23.05
2022-10-28T10:50:37.501Z,23.17
2022-10-28T10:54:39.601Z,23.54
2022-10-28T10:58:42.479Z,23.71
2022-10-28T11:02:52.237Z,24.00
2022-10-28T11:06:58.755Z,24.31
2022-10-28T11:11:16.779Z,24.34
2022-10-28T11:15:25.812Z,24.32
2022-10-28T11:19:33.481Z,24.48
2022-10-28T11:23:48.989Z,24.32
2022-10-28T11:28:01.512Z,24.48
2022-10-28T11:32:32.661Z,24.58
2022-10-28T11:36:42.629Z,24.66
2022-10-28T11:40:57.203Z,24.71
2022-10-28T11:45:04.228Z,25.01
2022-10-28T11:49:46.826Z,24.85
2022-10-28T11:54:21.617Z,24.82
2022-10-28T11:58:35.988Z,24.77
2022-10-28T12:02:53.575Z,25.02
2022-10-28T12:07:13.019Z,25.07
2022-10-28T12:11:24.721Z,25.26
2022-10-28T12:15:53.173Z,25.15
2022-10-28T12:19:59.715Z,25.17
2022-10-28T12:24:08.586Z,25.47
2022-10-28T12:28:18.713Z,25.60
2022-10-28T12:32:37.769Z,25.35
2022-10-28T12:37:14.886Z,25.14
2022-10-28T12:41:56.220Z,25.28
2022-10-28T12:46:31.289Z,25.67
2022-10-28T12:50:43.377Z,25.40
2022-10-28T12:54:59.451Z,25.57
2022-10-28T13:03:50.384Z,25.65
2022-10-28T13:08:34.525Z,25.66
2022-10-28T13:13:13.364Z,25.60
2022-10-28T13:17:35.528Z,25.61
2022-10-28T13:22:28.671Z,25.67
2022-10-28T13:26:35.718Z,25.57
2022-10-28T13:35:56.557Z,25.35
2022-10-28T13:40:01.089Z,25.09
2022-10-28T13:44:47.242Z,25.01
2022-10-28T13:49:33.202Z,25.17
2022-10-28T13:54:22.591Z,25.17
2022-10-28T14:03:30.575Z,25.12
2022-10-28T14:08:30.257Z,25.06
2022-10-28T14:17:00.375Z,24.92
2022-10-28T14:21:01.916Z,25.03
2022-10-28T14:25:35.701Z,25.11
2022-10-28T14:29:54.398Z,24.99
2022-10-28T14:34:44.758Z,24.92
2022-10-28T14:39:27.691Z,24.89
2022-10-28T14:44:03.604Z,24.81
2022-10-28T14:48:32.482Z,24.70
2022-10-28T14:53:10.274Z,24.65
2022-10-28T14:57:22.049Z,24.32
2022-10-28T15:02:18.426Z,23.86
2022-10-28T15:06:39.177Z,23.62
2022-10-28T15:10:49.320Z,23.21
2022-10-28T15:14:55.681Z,22.89
2022-10-28T15:19:01.765Z,22.53
2022-10-28T15:23:26.942Z,21.93
2022-10-28T15:27:32.982Z,21.63
2022-10-28T15:31:33.176Z,21.32
2022-10-28T15:35:43.150Z,21.15
2022-10-28T15:39:45.493Z,20.92
2022-10-28T15:43:56.310Z,20.60
2022-10-28T15:47:58.066Z,20.23
2022-10-28T15:52:37.195Z,19.85
2022-10-28T15:56:56.477Z,19.56
2022-10-28T16:00:58.620Z,19.17
2022-10-28T16:04:59.528Z,18.85
2022-10-28T16:09:19.848Z,18.70
2022-10-28T16:13:24.765Z,18.57
2022-10-28T16:17:31.451Z,18.46
2022-10-28T16:21:51.959Z,18.36
2022-10-28T16:25:55.282Z,18.23
2022-10-28T16:29:58.854Z,18.17
2022-10-28T16:33:59.991Z,18.00
2022-10-28T16:38:00.483Z,18.23
2022-10-28T16:42:03.260Z,18.00
2022-10-28T16:46:03.357Z,17.91
2022-10-28T16:50:33.553Z,17.95
2022-10-28T16:54:48.764Z,17.76
2022-10-28T16:58:56.206Z,17.52
2022-10-28T17:02:56.614Z,17.57
2022-10-28T17:06:58.082Z,17.46
2022-10-28T17:11:01.711Z,17.45
2022-10-28T17:15:03.265Z,17.29
2022-10-28T17:19:03.942Z,17.17
2022-10-28T17:23:04.689Z,17.12
2022-10-28T17:27:05.294Z,17.63
2022-10-28T17:31:13.200Z,17.75
2022-10-28T17:35:14.099Z,17.82
2022-10-28T17:39:18.590Z,17.81
2022-10-28T17:43:21.572Z,17.76
2022-10-28T17:47:24.820Z,17.65
2022-10-28T17:51:24.937Z,17.48
2022-10-28T17:55:24.476Z,17.10
2022-10-28T17:59:24.655Z,16.94
2022-10-28T18:03:27.609Z,16.68
2022-10-28T18:07:27.580Z,16.34
2022-10-28T18:11:27.557Z,16.44
2022-10-28T18:15:27.738Z,16.44
2022-10-28T18:19:30.346Z,16.57
2022-10-28T18:23:30.357Z,16.41
2022-10-28T18:27:31.480Z,16.64
2022-10-28T18:31:34.475Z,16.42
2022-10-28T18:35:37.315Z,16.57
2022-10-28T18:39:38.022Z,16.43
2022-10-28T18:43:38.984Z,16.47
2022-10-28T18:47:39.180Z,16.67
2022-10-28T18:51:54.516Z,16.49
2022-10-28T18:56:08.400Z,16.54
2022-10-28T19:00:17.805Z,16.73
2022-10-28T19:04:19.224Z,16.87
2022-10-28T19:08:22.062Z,16.64
2022-10-28T19:12:30.599Z,16.08
2022-10-28T19:16:55.250Z,15.57
2022-10-28T19:20:57.263Z,15.63
2022-10-28T19:24:59.949Z,15.92
2022-10-28T19:29:03.254Z,15.98
2022-10-28T19:33:03.953Z,15.79
2022-10-28T19:37:06.174Z,15.77
2022-10-28T19:41:11.068Z,15.54
2022-10-28T19:45:13.162Z,15.66
2022-10-28T19:49:18.571Z,15.66
2022-10-28T19:53:20.721Z,15.36
2022-10-28T19:57:23.413Z,15.20
2022-10-28T20:01:26.828Z,15.31
2022-10-28T20:05:29.815Z,14.70
2022-10-28T20:09:29.869Z,14.59
2022-10-28T20:13:36.732Z,14.77
2022-10-28T20:17:37.678Z,15.11
2022-10-28T20:21:38.974Z,14.98
2022-10-28T20:25:40.058Z,15.70
2022-10-28T20:29:43.670Z,15.84
2022-10-28T20:33:46.039Z,15.66
2022-10-28T20:37:49.834Z,15.60
2022-10-28T20:41:51.666Z,15.59
2022-10-28T20:46:05.726Z,15.43
2022-10-28T20:50:07.172Z,15.16
2022-10-28T20:54:08.131Z,15.21
2022-10-28T20:58:40.109Z,15.09
2022-10-28T21:02:43.086Z,14.79
2022-10-28T21:06:45.142Z,14.69
2022-10-28T21:10:48.385Z,14.46
2022-10-28T21:14:53.389Z,14.34
2022-10-28T21:18:58.881Z,14.31
2022-10-28T21:23:02.084Z,14.67
2022-10-28T21:27:02.070Z,14.49
2022-10-28T21:31:02.929Z,14.21
2022-10-28T21:35:05.508Z,14.25
2022-10-28T21:39:05.774Z,14.73
2022-10-28T21:43:06.709Z,14.98
2022-10-28T21:47:07.367Z,14.87
2022-10-28T21:51:13.627Z,14.60
2022-10-28T21:55:20.292Z,14.57
2022-10-28T21:59:21.345Z,14.77
2022-10-28T22:03:21.222Z,14.85
2022-10-28T22:07:23.436Z,14.73
2022-10-28T22:11:24.819Z,14.33
2022-10-28T22:15:25.254Z,13.90
2022-10-28T22:19:25.478Z,13.38
2022-10-28T22:23:27.796Z,12.89
2022-10-28T22:27:28.305Z,12.57
2022-10-28T22:31:31.191Z,12.42
2022-10-28T22:35:31.534Z,12.25
2022-10-28T22:39:34.112Z,12.05
2022-10-28T22:43:34.653Z,12.02
2022-10-28T22:47:34.693Z,12.15
2022-10-28T22:51:35.492Z,12.28
2022-10-28T22:55:38.010Z,12.40
2022-10-28T22:59:38.770Z,12.54
2022-10-28T23:03:40.322Z,13.04
2022-10-28T23:07:40.657Z,13.28
2022-10-28T23:11:43.551Z,13.49
2022-10-28T23:15:43.579Z,13.56
2022-10-28T23:19:45.861Z,13.74
2022-10-28T23:23:51.205Z,13.91
2022-10-28T23:27:56.856Z,14.03
2022-10-28T23:31:57.201Z,14.18
2022-10-28T23:35:57.851Z,14.17
2022-10-28T23:40:01.228Z,13.78
2022-10-28T23:44:04.257Z,13.44
2022-10-28T23:48:04.587Z,13.29
2022-10-28T23:52:05.022Z,13.85
2022-10-28T23:56:05.365Z,13.83
